sensor_id;sensor_type;location;lat;lon;timestamp;P1;durP1;ratioP1;P2;durP2;ratioP2
67997;SDS011;54773;53.388;-1.504;2022-09-14T00:00:59;13.50;;;7.32;;
67997;SDS011;54773;53.388;-1.504;2022-09-14T00:03:25;12.82;;;7.20;;
67997;SDS011;54773;53.388;-1.504;2022-09-14T00:05:50;11.45;;;7.88;;
67997;SDS011;54773;53.388;-1.504;2022-09-14T00:08:16;14.50;;;8.20;;
67997;SDS011;54773;53.388;-1.504;2022-09-14T00:10:45;15.00;;;8.75;;
67997;SDS011;54773;53.388;-1.504;2022-09-14T00:13:11;17.48;;;9.23;;
67997;SDS011;54773;53.388;-1.504;2022-09-14T00:15:39;14.10;;;8.40;;
67997;SDS011;54773;53.388;-1.504;2022-09-14T00:18:06;17.13;;;9.35;;
67997;SDS011;54773;53.388;-1.504;2022-09-14T00:20:35;16.25;;;9.43;;
67997;SDS011;54773;53.388;-1.504;2022-09-14T00:23:01;16.83;;;9.32;;
67997;SDS011;54773;53.388;-1.504;2022-09-14T00:25:27;15.18;;;9.48;;
67997;SDS011;54773;53.388;-1.504;2022-09-14T00:27:53;19.15;;;10.38;;
67997;SDS011;54773;53.388;-1.504;2022-09-14T00:30:20;16.33;;;11.07;;
67997;SDS011;54773;53.388;-1.504;2022-09-14T00:32:45;21.67;;;10.55;;
67997;SDS011;54773;53.388;-1.504;2022-09-14T00:35:11;20.67;;;9.55;;
67997;SDS011;54773;53.388;-1.504;2022-09-14T00:37:37;18.77;;;10.95;;
67997;SDS011;54773;53.388;-1.504;2022-09-14T00:40:04;17.13;;;9.75;;
67997;SDS011;54773;53.388;-1.504;2022-09-14T00:42:30;14.90;;;9.95;;
67997;SDS011;54773;53.388;-1.504;2022-09-14T00:45:00;15.73;;;9.50;;
67997;SDS011;54773;53.388;-1.504;2022-09-14T00:47:30;17.48;;;9.68;;
67997;SDS011;54773;53.388;-1.504;2022-09-14T00:49:56;15.30;;;10.10;;
67997;SDS011;54773;53.388;-1.504;2022-09-14T00:52:25;18.77;;;9.57;;
67997;SDS011;54773;53.388;-1.504;2022-09-14T00:54:54;19.13;;;11.05;;
67997;SDS011;54773;53.388;-1.504;2022-09-14T00:57:21;18.45;;;10.00;;
67997;SDS011;54773;53.388;-1.504;2022-09-14T00:59:48;19.80;;;11.25;;
67997;SDS011;54773;53.388;-1.504;2022-09-14T01:02:15;18.83;;;10.55;;
67997;SDS011;54773;53.388;-1.504;2022-09-14T01:04:42;19.58;;;10.90;;
67997;SDS011;54773;53.388;-1.504;2022-09-14T01:09:59;24.00;;;12.00;;
67997;SDS011;54773;53.388;-1.504;2022-09-14T01:32:33;20.27;;;12.13;;
67997;SDS011;54773;53.388;-1.504;2022-09-14T01:37:32;22.42;;;12.18;;
67997;SDS011;54773;53.388;-1.504;2022-09-14T01:45:59;25.35;;;12.38;;
67997;SDS011;54773;53.388;-1.504;2022-09-14T01:48:34;25.88;;;13.85;;
67997;SDS011;54773;53.388;-1.504;2022-09-14T01:51:04;24.20;;;13.32;;
67997;SDS011;54773;53.388;-1.504;2022-09-14T01:53:35;25.98;;;13.13;;
67997;SDS011;54773;53.388;-1.504;2022-09-14T01:56:06;25.48;;;12.52;;
67997;SDS011;54773;53.388;-1.504;2022-09-14T01:58:49;20.70;;;12.30;;
67997;SDS011;54773;53.388;-1.504;2022-09-14T02:01:19;21.77;;;12.88;;
67997;SDS011;54773;53.388;-1.504;2022-09-14T02:03:52;24.33;;;14.10;;
67997;SDS011;54773;53.388;-1.504;2022-09-14T02:06:26;26.20;;;12.90;;
67997;SDS011;54773;53.388;-1.504;2022-09-14T02:08:54;22.17;;;13.02;;
67997;SDS011;54773;53.388;-1.504;2022-09-14T02:11:20;27.92;;;13.20;;
67997;SDS011;54773;53.388;-1.504;2022-09-14T02:13:45;27.98;;;13.68;;
67997;SDS011;54773;53.388;-1.504;2022-09-14T02:16:11;26.77;;;15.20;;
67997;SDS011;54773;53.388;-1.504;2022-09-14T02:18:37;31.75;;;14.95;;
67997;SDS011;54773;53.388;-1.504;2022-09-14T02:21:08;31.73;;;16.10;;
67997;SDS011;54773;53.388;-1.504;2022-09-14T02:23:37;26.15;;;14.27;;
67997;SDS011;54773;53.388;-1.504;2022-09-14T02:26:03;28.90;;;13.60;;
67997;SDS011;54773;53.388;-1.504;2022-09-14T02:28:29;25.88;;;14.02;;
67997;SDS011;54773;53.388;-1.504;2022-09-14T02:33:47;25.55;;;13.15;;
67997;SDS011;54773;53.388;-1.504;2022-09-14T02:36:18;23.98;;;12.70;;
67997;SDS011;54773;53.388;-1.504;2022-09-14T02:38:55;25.75;;;14.25;;
67997;SDS011;54773;53.388;-1.504;2022-09-14T02:54:27;24.25;;;13.18;;
67997;SDS011;54773;53.388;-1.504;2022-09-14T02:57:00;21.60;;;13.52;;
67997;SDS011;54773;53.388;-1.504;2022-09-14T02:59:26;24.42;;;12.77;;
67997;SDS011;54773;53.388;-1.504;2022-09-14T03:01:52;22.20;;;12.88;;
67997;SDS011;54773;53.388;-1.504;2022-09-14T03:04:18;25.58;;;13.80;;
67997;SDS011;54773;53.388;-1.504;2022-09-14T03:06:44;26.95;;;13.63;;
67997;SDS011;54773;53.388;-1.504;2022-09-14T03:09:09;26.67;;;13.55;;
67997;SDS011;54773;53.388;-1.504;2022-09-14T03:11:35;27.40;;;13.57;;
67997;SDS011;54773;53.388;-1.504;2022-09-14T03:14:01;22.75;;;13.57;;
67997;SDS011;54773;53.388;-1.504;2022-09-14T03:16:27;26.33;;;13.57;;
67997;SDS011;54773;53.388;-1.504;2022-09-14T03:18:53;20.02;;;12.75;;
67997;SDS011;54773;53.388;-1.504;2022-09-14T03:21:18;23.83;;;11.90;;
67997;SDS011;54773;53.388;-1.504;2022-09-14T03:23:45;22.17;;;10.82;;
67997;SDS011;54773;53.388;-1.504;2022-09-14T03:26:15;21.33;;;9.80;;
67997;SDS011;54773;53.388;-1.504;2022-09-14T03:28:43;16.20;;;9.27;;
67997;SDS011;54773;53.388;-1.504;2022-09-14T03:31:10;16.58;;;8.95;;
67997;SDS011;54773;53.388;-1.504;2022-09-14T03:33:36;16.58;;;8.80;;
67997;SDS011;54773;53.388;-1.504;2022-09-14T03:36:35;17.17;;;9.15;;
67997;SDS011;54773;53.388;-1.504;2022-09-14T03:38:55;19.67;;;8.40;;
67997;SDS011;54773;53.388;-1.504;2022-09-14T03:41:22;11.43;;;7.50;;
67997;SDS011;54773;53.388;-1.504;2022-09-14T03:43:48;14.73;;;7.40;;
67997;SDS011;54773;53.388;-1.504;2022-09-14T03:46:15;17.25;;;7.38;;
67997;SDS011;54773;53.388;-1.504;2022-09-14T03:48:43;13.60;;;7.32;;
67997;SDS011;54773;53.388;-1.504;2022-09-14T03:51:09;14.13;;;7.40;;
67997;SDS011;54773;53.388;-1.504;2022-09-14T03:53:36;16.80;;;7.18;;
67997;SDS011;54773;53.388;-1.504;2022-09-14T03:56:05;12.77;;;6.75;;
67997;SDS011;54773;53.388;-1.504;2022-09-14T03:58:35;13.65;;;7.45;;
67997;SDS011;54773;53.388;-1.504;2022-09-14T04:01:02;14.65;;;7.47;;
67997;SDS011;54773;53.388;-1.504;2022-09-14T04:03:32;15.75;;;6.78;;
67997;SDS011;54773;53.388;-1.504;2022-09-14T04:05:58;15.98;;;7.40;;
67997;SDS011;54773;53.388;-1.504;2022-09-14T04:08:23;15.43;;;7.80;;
67997;SDS011;54773;53.388;-1.504;2022-09-14T04:10:48;15.40;;;7.35;;
67997;SDS011;54773;53.388;-1.504;2022-09-14T04:13:14;14.55;;;7.20;;
67997;SDS011;54773;53.388;-1.504;2022-09-14T04:15:39;14.02;;;7.15;;
67997;SDS011;54773;53.388;-1.504;2022-09-14T04:18:05;12.90;;;7.30;;
67997;SDS011;54773;53.388;-1.504;2022-09-14T04:20:31;16.38;;;7.60;;
67997;SDS011;54773;53.388;-1.504;2022-09-14T04:22:57;15.30;;;7.18;;
67997;SDS011;54773;53.388;-1.504;2022-09-14T04:25:22;19.23;;;8.20;;
67997;SDS011;54773;53.388;-1.504;2022-09-14T04:27:48;16.23;;;8.23;;
67997;SDS011;54773;53.388;-1.504;2022-09-14T04:30:14;15.13;;;7.93;;
67997;SDS011;54773;53.388;-1.504;2022-09-14T04:32:40;15.23;;;7.63;;
67997;SDS011;54773;53.388;-1.504;2022-09-14T04:35:06;18.05;;;8.07;;
67997;SDS011;54773;53.388;-1.504;2022-09-14T04:37:31;17.98;;;8.45;;
67997;SDS011;54773;53.388;-1.504;2022-09-14T04:39:57;16.27;;;8.48;;
67997;SDS011;54773;53.388;-1.504;2022-09-14T04:42:25;16.67;;;9.02;;
67997;SDS011;54773;53.388;-1.504;2022-09-14T04:44:51;18.73;;;8.50;;
67997;SDS011;54773;53.388;-1.504;2022-09-14T04:47:16;19.85;;;8.45;;
67997;SDS011;54773;53.388;-1.504;2022-09-14T04:49:42;19.42;;;8.98;;
67997;SDS011;54773;53.388;-1.504;2022-09-14T04:52:08;15.18;;;8.38;;
67997;SDS011;54773;53.388;-1.504;2022-09-14T04:54:33;16.30;;;8.25;;
67997;SDS011;54773;53.388;-1.504;2022-09-14T04:56:59;16.40;;;8.32;;
67997;SDS011;54773;53.388;-1.504;2022-09-14T04:59:24;15.40;;;7.63;;
67997;SDS011;54773;53.388;-1.504;2022-09-14T05:01:50;13.98;;;6.95;;
67997;SDS011;54773;53.388;-1.504;2022-09-14T05:04:15;14.95;;;7.15;;
67997;SDS011;54773;53.388;-1.504;2022-09-14T05:06:41;11.93;;;6.18;;
67997;SDS011;54773;53.388;-1.504;2022-09-14T05:09:14;13.02;;;6.72;;
67997;SDS011;54773;53.388;-1.504;2022-09-14T05:11:41;12.57;;;6.85;;
67997;SDS011;54773;53.388;-1.504;2022-09-14T05:14:08;13.80;;;7.00;;
67997;SDS011;54773;53.388;-1.504;2022-09-14T05:16:36;14.90;;;7.20;;
67997;SDS011;54773;53.388;-1.504;2022-09-14T05:19:04;12.48;;;6.03;;
67997;SDS011;54773;53.388;-1.504;2022-09-14T05:21:32;9.77;;;5.30;;
67997;SDS011;54773;53.388;-1.504;2022-09-14T05:23:59;12.57;;;6.18;;
67997;SDS011;54773;53.388;-1.504;2022-09-14T05:26:26;8.98;;;5.13;;
67997;SDS011;54773;53.388;-1.504;2022-09-14T05:28:53;13.02;;;5.57;;
67997;SDS011;54773;53.388;-1.504;2022-09-14T05:31:21;8.95;;;4.50;;
67997;SDS011;54773;53.388;-1.504;2022-09-14T05:33:48;8.05;;;4.57;;
67997;SDS011;54773;53.388;-1.504;2022-09-14T05:36:15;9.80;;;5.80;;
67997;SDS011;54773;53.388;-1.504;2022-09-14T05:38:40;10.63;;;4.80;;
67997;SDS011;54773;53.388;-1.504;2022-09-14T05:41:09;8.43;;;3.90;;
67997;SDS011;54773;53.388;-1.504;2022-09-14T05:43:37;7.47;;;4.00;;
67997;SDS011;54773;53.388;-1.504;2022-09-14T05:46:04;10.38;;;3.80;;
67997;SDS011;54773;53.388;-1.504;2022-09-14T05:48:47;6.60;;;3.60;;
67997;SDS011;54773;53.388;-1.504;2022-09-14T05:51:16;7.75;;;3.28;;
67997;SDS011;54773;53.388;-1.504;2022-09-14T05:53:47;8.88;;;3.75;;
67997;SDS011;54773;53.388;-1.504;2022-09-14T05:56:17;5.55;;;3.50;;
67997;SDS011;54773;53.388;-1.504;2022-09-14T05:58:43;10.05;;;3.40;;
67997;SDS011;54773;53.388;-1.504;2022-09-14T06:03:42;5.38;;;2.97;;
67997;SDS011;54773;53.388;-1.504;2022-09-14T06:06:09;7.90;;;3.50;;
67997;SDS011;54773;53.388;-1.504;2022-09-14T06:08:36;5.68;;;2.88;;
67997;SDS011;54773;53.388;-1.504;2022-09-14T06:11:05;7.20;;;3.20;;
67997;SDS011;54773;53.388;-1.504;2022-09-14T06:13:32;10.50;;;3.55;;
67997;SDS011;54773;53.388;-1.504;2022-09-14T06:16:05;6.32;;;3.17;;
67997;SDS011;54773;53.388;-1.504;2022-09-14T06:18:32;7.53;;;3.55;;
67997;SDS011;54773;53.388;-1.504;2022-09-14T06:20:58;6.65;;;3.28;;
67997;SDS011;54773;53.388;-1.504;2022-09-14T06:23:27;4.68;;;2.90;;
67997;SDS011;54773;53.388;-1.504;2022-09-14T06:25:57;7.18;;;3.20;;
67997;SDS011;54773;53.388;-1.504;2022-09-14T06:28:24;8.40;;;3.17;;
67997;SDS011;54773;53.388;-1.504;2022-09-14T06:30:50;12.57;;;3.88;;
67997;SDS011;54773;53.388;-1.504;2022-09-14T06:33:16;8.35;;;3.08;;
67997;SDS011;54773;53.388;-1.504;2022-09-14T06:35:42;5.53;;;3.05;;
67997;SDS011;54773;53.388;-1.504;2022-09-14T06:38:10;6.07;;;3.30;;
67997;SDS011;54773;53.388;-1.504;2022-09-14T06:40:36;8.98;;;3.15;;
67997;SDS011;54773;53.388;-1.504;2022-09-14T06:43:01;7.32;;;2.63;;
67997;SDS011;54773;53.388;-1.504;2022-09-14T06:45:30;8.48;;;3.20;;
67997;SDS011;54773;53.388;-1.504;2022-09-14T06:47:56;5.15;;;3.25;;
67997;SDS011;54773;53.388;-1.504;2022-09-14T06:50:22;7.50;;;2.70;;
67997;SDS011;54773;53.388;-1.504;2022-09-14T06:52:48;11.65;;;3.40;;
67997;SDS011;54773;53.388;-1.504;2022-09-14T06:55:14;4.53;;;2.60;;
67997;SDS011;54773;53.388;-1.504;2022-09-14T06:57:39;6.38;;;2.90;;
67997;SDS011;54773;53.388;-1.504;2022-09-14T07:00:05;8.50;;;3.40;;
67997;SDS011;54773;53.388;-1.504;2022-09-14T07:02:31;6.55;;;2.88;;
67997;SDS011;54773;53.388;-1.504;2022-09-14T07:04:56;7.72;;;3.05;;
67997;SDS011;54773;53.388;-1.504;2022-09-14T07:07:22;8.30;;;3.00;;
67997;SDS011;54773;53.388;-1.504;2022-09-14T07:09:47;6.45;;;3.03;;
67997;SDS011;54773;53.388;-1.504;2022-09-14T07:12:13;6.72;;;3.15;;
67997;SDS011;54773;53.388;-1.504;2022-09-14T07:14:39;7.45;;;3.10;;
67997;SDS011;54773;53.388;-1.504;2022-09-14T07:17:04;5.30;;;2.80;;
67997;SDS011;54773;53.388;-1.504;2022-09-14T07:19:31;8.35;;;2.95;;
67997;SDS011;54773;53.388;-1.504;2022-09-14T07:21:57;6.68;;;3.33;;
67997;SDS011;54773;53.388;-1.504;2022-09-14T07:24:23;6.68;;;2.85;;
67997;SDS011;54773;53.388;-1.504;2022-09-14T07:26:48;6.63;;;3.22;;
67997;SDS011;54773;53.388;-1.504;2022-09-14T07:29:15;6.28;;;3.40;;
67997;SDS011;54773;53.388;-1.504;2022-09-14T07:31:46;8.25;;;3.50;;
67997;SDS011;54773;53.388;-1.504;2022-09-14T07:34:16;7.15;;;3.78;;
67997;SDS011;54773;53.388;-1.504;2022-09-14T07:36:42;7.60;;;3.58;;
67997;SDS011;54773;53.388;-1.504;2022-09-14T07:39:10;8.25;;;3.65;;
67997;SDS011;54773;53.388;-1.504;2022-09-14T07:41:41;6.63;;;3.83;;
67997;SDS011;54773;53.388;-1.504;2022-09-14T07:44:07;10.32;;;4.20;;
67997;SDS011;54773;53.388;-1.504;2022-09-14T07:46:40;12.43;;;4.40;;
67997;SDS011;54773;53.388;-1.504;2022-09-14T07:49:08;7.70;;;3.85;;
67997;SDS011;54773;53.388;-1.504;2022-09-14T07:51:34;6.82;;;3.60;;
67997;SDS011;54773;53.388;-1.504;2022-09-14T07:54:01;7.38;;;4.00;;
67997;SDS011;54773;53.388;-1.504;2022-09-14T07:56:27;7.32;;;3.70;;
67997;SDS011;54773;53.388;-1.504;2022-09-14T07:58:54;6.50;;;3.80;;
67997;SDS011;54773;53.388;-1.504;2022-09-14T08:01:21;6.10;;;3.72;;
67997;SDS011;54773;53.388;-1.504;2022-09-14T08:03:48;9.50;;;4.05;;
67997;SDS011;54773;53.388;-1.504;2022-09-14T08:06:17;8.40;;;4.18;;
67997;SDS011;54773;53.388;-1.504;2022-09-14T08:08:45;7.38;;;3.80;;
67997;SDS011;54773;53.388;-1.504;2022-09-14T08:11:13;7.03;;;3.63;;
67997;SDS011;54773;53.388;-1.504;2022-09-14T08:13:43;6.57;;;3.88;;
67997;SDS011;54773;53.388;-1.504;2022-09-14T08:16:09;8.23;;;4.03;;
67997;SDS011;54773;53.388;-1.504;2022-09-14T08:18:36;7.70;;;3.72;;
67997;SDS011;54773;53.388;-1.504;2022-09-14T08:21:09;6.90;;;3.95;;
67997;SDS011;54773;53.388;-1.504;2022-09-14T08:23:36;6.47;;;3.63;;
67997;SDS011;54773;53.388;-1.504;2022-09-14T08:26:10;6.57;;;3.90;;
67997;SDS011;54773;53.388;-1.504;2022-09-14T08:28:39;5.75;;;3.40;;
67997;SDS011;54773;53.388;-1.504;2022-09-14T08:33:55;7.95;;;3.30;;
67997;SDS011;54773;53.388;-1.504;2022-09-14T08:36:26;10.35;;;3.35;;
67997;SDS011;54773;53.388;-1.504;2022-09-14T08:38:57;5.97;;;2.67;;
67997;SDS011;54773;53.388;-1.504;2022-09-14T08:41:30;5.85;;;2.60;;
67997;SDS011;54773;53.388;-1.504;2022-09-14T08:46:52;5.30;;;2.50;;
67997;SDS011;54773;53.388;-1.504;2022-09-14T08:49:25;5.88;;;2.38;;
67997;SDS011;54773;53.388;-1.504;2022-09-14T08:51:54;4.82;;;1.90;;
67997;SDS011;54773;53.388;-1.504;2022-09-14T08:54:20;7.32;;;2.20;;
67997;SDS011;54773;53.388;-1.504;2022-09-14T08:56:52;7.05;;;1.80;;
67997;SDS011;54773;53.388;-1.504;2022-09-14T08:59:35;5.93;;;1.77;;
67997;SDS011;54773;53.388;-1.504;2022-09-14T09:07:18;6.03;;;2.00;;
67997;SDS011;54773;53.388;-1.504;2022-09-14T09:09:50;4.72;;;2.03;;
67997;SDS011;54773;53.388;-1.504;2022-09-14T09:12:21;10.65;;;2.65;;
67997;SDS011;54773;53.388;-1.504;2022-09-14T09:14:59;4.85;;;2.85;;
67997;SDS011;54773;53.388;-1.504;2022-09-14T09:17:37;7.45;;;2.22;;
67997;SDS011;54773;53.388;-1.504;2022-09-14T09:22:42;4.68;;;2.25;;
67997;SDS011;54773;53.388;-1.504;2022-09-14T09:25:13;4.70;;;2.20;;
67997;SDS011;54773;53.388;-1.504;2022-09-14T09:27:41;4.75;;;2.00;;
67997;SDS011;54773;53.388;-1.504;2022-09-14T09:30:10;5.50;;;2.10;;
67997;SDS011;54773;53.388;-1.504;2022-09-14T09:32:37;5.47;;;2.13;;
67997;SDS011;54773;53.388;-1.504;2022-09-14T09:35:04;7.25;;;2.47;;
67997;SDS011;54773;53.388;-1.504;2022-09-14T09:37:30;5.13;;;1.85;;
67997;SDS011;54773;53.388;-1.504;2022-09-14T09:40:00;4.05;;;1.90;;
67997;SDS011;54773;53.388;-1.504;2022-09-14T09:42:26;4.38;;;1.83;;
67997;SDS011;54773;53.388;-1.504;2022-09-14T09:47:28;8.68;;;2.80;;
67997;SDS011;54773;53.388;-1.504;2022-09-14T09:50:02;7.88;;;3.13;;
67997;SDS011;54773;53.388;-1.504;2022-09-14T09:52:48;7.88;;;3.10;;
67997;SDS011;54773;53.388;-1.504;2022-09-14T09:55:21;7.28;;;3.15;;
67997;SDS011;54773;53.388;-1.504;2022-09-14T09:57:52;7.97;;;2.83;;
67997;SDS011;54773;53.388;-1.504;2022-09-14T10:00:23;6.57;;;2.90;;
67997;SDS011;54773;53.388;-1.504;2022-09-14T10:02:49;6.85;;;3.33;;
67997;SDS011;54773;53.388;-1.504;2022-09-14T10:12:58;6.70;;;2.47;;
67997;SDS011;54773;53.388;-1.504;2022-09-14T10:15:25;4.65;;;2.22;;
67997;SDS011;54773;53.388;-1.504;2022-09-14T10:20:39;6.75;;;2.58;;
67997;SDS011;54773;53.388;-1.504;2022-09-14T10:25:43;6.38;;;2.22;;
67997;SDS011;54773;53.388;-1.504;2022-09-14T10:28:22;6.00;;;2.13;;
67997;SDS011;54773;53.388;-1.504;2022-09-14T10:30:59;5.78;;;2.17;;
67997;SDS011;54773;53.388;-1.504;2022-09-14T10:33:27;6.28;;;1.98;;
67997;SDS011;54773;53.388;-1.504;2022-09-14T10:38:39;9.32;;;2.33;;
67997;SDS011;54773;53.388;-1.504;2022-09-14T10:41:11;6.68;;;2.28;;
67997;SDS011;54773;53.388;-1.504;2022-09-14T10:46:08;6.70;;;2.50;;
67997;SDS011;54773;53.388;-1.504;2022-09-14T10:48:44;9.88;;;3.40;;
67997;SDS011;54773;53.388;-1.504;2022-09-14T10:53:51;6.22;;;2.58;;
67997;SDS011;54773;53.388;-1.504;2022-09-14T11:07:33;5.45;;;2.22;;
67997;SDS011;54773;53.388;-1.504;2022-09-14T11:15:26;6.50;;;2.10;;
67997;SDS011;54773;53.388;-1.504;2022-09-14T11:23:36;7.53;;;2.13;;
67997;SDS011;54773;53.388;-1.504;2022-09-14T11:26:14;6.70;;;2.00;;
67997;SDS011;54773;53.388;-1.504;2022-09-14T11:28:56;6.13;;;2.20;;
67997;SDS011;54773;53.388;-1.504;2022-09-14T11:31:27;4.82;;;1.90;;
67997;SDS011;54773;53.388;-1.504;2022-09-14T11:36:49;7.22;;;2.10;;
67997;SDS011;54773;53.388;-1.504;2022-09-14T11:39:22;5.28;;;2.00;;
67997;SDS011;54773;53.388;-1.504;2022-09-14T11:44:42;6.80;;;1.90;;
67997;SDS011;54773;53.388;-1.504;2022-09-14T11:47:15;6.75;;;2.10;;
67997;SDS011;54773;53.388;-1.504;2022-09-14T11:49:51;4.85;;;1.90;;
67997;SDS011;54773;53.388;-1.504;2022-09-14T11:52:21;6.40;;;2.30;;
67997;SDS011;54773;53.388;-1.504;2022-09-14T11:54:49;5.75;;;1.95;;
67997;SDS011;54773;53.388;-1.504;2022-09-14T11:57:28;5.85;;;2.40;;
67997;SDS011;54773;53.388;-1.504;2022-09-14T11:59:56;7.20;;;2.20;;
67997;SDS011;54773;53.388;-1.504;2022-09-14T12:12:41;7.93;;;2.83;;
67997;SDS011;54773;53.388;-1.504;2022-09-14T12:15:16;7.18;;;2.35;;
67997;SDS011;54773;53.388;-1.504;2022-09-14T12:25:52;6.63;;;2.70;;
67997;SDS011;54773;53.388;-1.504;2022-09-14T12:28:27;9.02;;;2.63;;
67997;SDS011;54773;53.388;-1.504;2022-09-14T12:35:56;6.60;;;2.38;;
67997;SDS011;54773;53.388;-1.504;2022-09-14T12:46:03;5.10;;;2.40;;
67997;SDS011;54773;53.388;-1.504;2022-09-14T12:49:13;7.10;;;2.72;;
67997;SDS011;54773;53.388;-1.504;2022-09-14T12:53:45;7.10;;;2.50;;
67997;SDS011;54773;53.388;-1.504;2022-09-14T12:56:24;9.27;;;2.65;;
67997;SDS011;54773;53.388;-1.504;2022-09-14T12:58:58;7.82;;;2.10;;
67997;SDS011;54773;53.388;-1.504;2022-09-14T13:01:35;7.00;;;3.00;;
67997;SDS011;54773;53.388;-1.504;2022-09-14T13:04:23;8.30;;;2.63;;
67997;SDS011;54773;53.388;-1.504;2022-09-14T13:06:51;6.97;;;2.55;;
67997;SDS011;54773;53.388;-1.504;2022-09-14T13:09:18;7.15;;;2.80;;
67997;SDS011;54773;53.388;-1.504;2022-09-14T13:11:45;7.28;;;2.60;;
67997;SDS011;54773;53.388;-1.504;2022-09-14T13:14:16;6.97;;;2.70;;
67997;SDS011;54773;53.388;-1.504;2022-09-14T13:16:43;8.38;;;2.80;;
67997;SDS011;54773;53.388;-1.504;2022-09-14T13:21:54;6.75;;;2.50;;
67997;SDS011;54773;53.388;-1.504;2022-09-14T13:24:22;5.40;;;2.63;;
67997;SDS011;54773;53.388;-1.504;2022-09-14T13:26:53;7.45;;;2.40;;
67997;SDS011;54773;53.388;-1.504;2022-09-14T13:29:20;4.90;;;2.50;;
67997;SDS011;54773;53.388;-1.504;2022-09-14T13:31:46;5.15;;;2.40;;
67997;SDS011;54773;53.388;-1.504;2022-09-14T13:37:06;9.35;;;2.55;;
67997;SDS011;54773;53.388;-1.504;2022-09-14T13:39:33;4.78;;;2.22;;
67997;SDS011;54773;53.388;-1.504;2022-09-14T13:42:01;5.80;;;2.83;;
67997;SDS011;54773;53.388;-1.504;2022-09-14T13:44:29;4.80;;;2.35;;
67997;SDS011;54773;53.388;-1.504;2022-09-14T13:47:00;8.63;;;2.60;;
67997;SDS011;54773;53.388;-1.504;2022-09-14T13:49:27;5.65;;;2.80;;
67997;SDS011;54773;53.388;-1.504;2022-09-14T13:52:15;6.30;;;3.00;;
67997;SDS011;54773;53.388;-1.504;2022-09-14T13:54:48;5.22;;;2.67;;
67997;SDS011;54773;53.388;-1.504;2022-09-14T13:57:16;8.18;;;3.15;;
67997;SDS011;54773;53.388;-1.504;2022-09-14T14:04:53;8.80;;;3.05;;
67997;SDS011;54773;53.388;-1.504;2022-09-14T14:07:21;5.25;;;2.90;;
67997;SDS011;54773;53.388;-1.504;2022-09-14T14:09:48;6.38;;;3.08;;
67997;SDS011;54773;53.388;-1.504;2022-09-14T14:12:23;8.02;;;2.67;;
67997;SDS011;54773;53.388;-1.504;2022-09-14T14:15:01;5.35;;;2.53;;
67997;SDS011;54773;53.388;-1.504;2022-09-14T14:17:47;7.13;;;2.85;;
67997;SDS011;54773;53.388;-1.504;2022-09-14T14:25:30;7.32;;;2.47;;
67997;SDS011;54773;53.388;-1.504;2022-09-14T14:28:01;5.57;;;3.05;;
67997;SDS011;54773;53.388;-1.504;2022-09-14T14:30:28;5.93;;;2.70;;
67997;SDS011;54773;53.388;-1.504;2022-09-14T14:32:55;5.95;;;2.72;;
67997;SDS011;54773;53.388;-1.504;2022-09-14T14:35:22;7.63;;;2.60;;
67997;SDS011;54773;53.388;-1.504;2022-09-14T14:37:50;5.82;;;2.58;;
67997;SDS011;54773;53.388;-1.504;2022-09-14T14:40:15;6.35;;;2.85;;
67997;SDS011;54773;53.388;-1.504;2022-09-14T14:42:43;5.95;;;2.67;;
67997;SDS011;54773;53.388;-1.504;2022-09-14T14:45:13;6.55;;;2.88;;
67997;SDS011;54773;53.388;-1.504;2022-09-14T14:47:43;8.27;;;3.20;;
67997;SDS011;54773;53.388;-1.504;2022-09-14T14:50:12;7.10;;;2.92;;
67997;SDS011;54773;53.388;-1.504;2022-09-14T14:52:46;5.85;;;2.42;;
67997;SDS011;54773;53.388;-1.504;2022-09-14T14:55:11;5.40;;;2.58;;
67997;SDS011;54773;53.388;-1.504;2022-09-14T14:57:37;6.22;;;2.85;;
67997;SDS011;54773;53.388;-1.504;2022-09-14T15:00:10;8.23;;;2.30;;
67997;SDS011;54773;53.388;-1.504;2022-09-14T15:02:38;6.15;;;2.38;;
67997;SDS011;54773;53.388;-1.504;2022-09-14T15:05:03;7.15;;;2.40;;
67997;SDS011;54773;53.388;-1.504;2022-09-14T15:07:29;5.88;;;3.10;;
67997;SDS011;54773;53.388;-1.504;2022-09-14T15:09:58;7.15;;;2.90;;
67997;SDS011;54773;53.388;-1.504;2022-09-14T15:12:23;7.13;;;2.60;;
67997;SDS011;54773;53.388;-1.504;2022-09-14T15:14:49;6.63;;;2.95;;
67997;SDS011;54773;53.388;-1.504;2022-09-14T15:17:15;7.40;;;3.20;;
67997;SDS011;54773;53.388;-1.504;2022-09-14T15:19:41;6.07;;;2.78;;
67997;SDS011;54773;53.388;-1.504;2022-09-14T15:22:07;6.28;;;2.60;;
67997;SDS011;54773;53.388;-1.504;2022-09-14T15:24:33;4.82;;;2.45;;
67997;SDS011;54773;53.388;-1.504;2022-09-14T15:26:59;9.85;;;2.70;;
67997;SDS011;54773;53.388;-1.504;2022-09-14T15:29:25;5.90;;;2.22;;
67997;SDS011;54773;53.388;-1.504;2022-09-14T15:31:51;6.57;;;2.50;;
67997;SDS011;54773;53.388;-1.504;2022-09-14T15:34:17;6.65;;;3.05;;
67997;SDS011;54773;53.388;-1.504;2022-09-14T15:36:44;5.63;;;2.20;;
67997;SDS011;54773;53.388;-1.504;2022-09-14T15:39:22;5.13;;;2.22;;
67997;SDS011;54773;53.388;-1.504;2022-09-14T15:41:49;4.63;;;2.10;;
67997;SDS011;54773;53.388;-1.504;2022-09-14T15:44:15;5.93;;;2.45;;
67997;SDS011;54773;53.388;-1.504;2022-09-14T15:46:42;7.18;;;2.88;;
67997;SDS011;54773;53.388;-1.504;2022-09-14T15:49:16;6.32;;;2.70;;
67997;SDS011;54773;53.388;-1.504;2022-09-14T15:51:44;9.23;;;2.80;;
67997;SDS011;54773;53.388;-1.504;2022-09-14T15:54:10;6.40;;;2.50;;
67997;SDS011;54773;53.388;-1.504;2022-09-14T15:56:36;6.57;;;2.60;;
67997;SDS011;54773;53.388;-1.504;2022-09-14T15:59:02;8.05;;;2.45;;
67997;SDS011;54773;53.388;-1.504;2022-09-14T16:01:28;6.80;;;2.72;;
67997;SDS011;54773;53.388;-1.504;2022-09-14T16:03:55;6.32;;;3.00;;
67997;SDS011;54773;53.388;-1.504;2022-09-14T16:06:25;6.03;;;2.28;;
67997;SDS011;54773;53.388;-1.504;2022-09-14T16:08:51;6.40;;;2.60;;
67997;SDS011;54773;53.388;-1.504;2022-09-14T16:11:17;8.88;;;2.67;;
67997;SDS011;54773;53.388;-1.504;2022-09-14T16:13:42;5.30;;;2.38;;
67997;SDS011;54773;53.388;-1.504;2022-09-14T16:16:09;8.13;;;2.88;;
67997;SDS011;54773;53.388;-1.504;2022-09-14T16:18:36;7.25;;;2.67;;
67997;SDS011;54773;53.388;-1.504;2022-09-14T16:23:32;7.60;;;2.50;;
67997;SDS011;54773;53.388;-1.504;2022-09-14T16:25:58;5.03;;;2.30;;
67997;SDS011;54773;53.388;-1.504;2022-09-14T16:28:24;4.85;;;2.47;;
67997;SDS011;54773;53.388;-1.504;2022-09-14T16:30:50;5.63;;;2.30;;
67997;SDS011;54773;53.388;-1.504;2022-09-14T16:33:17;6.75;;;2.50;;
67997;SDS011;54773;53.388;-1.504;2022-09-14T16:35:43;7.80;;;2.58;;
67997;SDS011;54773;53.388;-1.504;2022-09-14T16:38:11;5.13;;;2.33;;
67997;SDS011;54773;53.388;-1.504;2022-09-14T16:40:37;6.55;;;2.50;;
67997;SDS011;54773;53.388;-1.504;2022-09-14T16:43:03;5.60;;;2.28;;
67997;SDS011;54773;53.388;-1.504;2022-09-14T16:45:29;7.55;;;2.40;;
67997;SDS011;54773;53.388;-1.504;2022-09-14T16:47:54;5.28;;;2.33;;
67997;SDS011;54773;53.388;-1.504;2022-09-14T16:50:20;5.20;;;2.50;;
67997;SDS011;54773;53.388;-1.504;2022-09-14T16:52:45;6.00;;;2.58;;
67997;SDS011;54773;53.388;-1.504;2022-09-14T16:55:11;5.35;;;2.40;;
67997;SDS011;54773;53.388;-1.504;2022-09-14T16:57:37;5.22;;;2.65;;
67997;SDS011;54773;53.388;-1.504;2022-09-14T17:00:02;5.35;;;2.53;;
67997;SDS011;54773;53.388;-1.504;2022-09-14T17:02:28;5.32;;;2.47;;
67997;SDS011;54773;53.388;-1.504;2022-09-14T17:04:53;6.85;;;2.53;;
67997;SDS011;54773;53.388;-1.504;2022-09-14T17:07:19;6.80;;;2.85;;
67997;SDS011;54773;53.388;-1.504;2022-09-14T17:09:46;5.63;;;2.38;;
67997;SDS011;54773;53.388;-1.504;2022-09-14T17:12:12;6.55;;;2.65;;
67997;SDS011;54773;53.388;-1.504;2022-09-14T17:14:37;5.80;;;2.50;;
67997;SDS011;54773;53.388;-1.504;2022-09-14T17:17:03;7.22;;;2.35;;
67997;SDS011;54773;53.388;-1.504;2022-09-14T17:19:29;4.85;;;2.60;;
67997;SDS011;54773;53.388;-1.504;2022-09-14T17:21:55;5.78;;;2.42;;